createdAt,value
2018-01-17T00:01:16.843Z,5.60
2018-01-17T00:03:19.565Z,10.30
2018-01-17T00:05:22.227Z,9.80
2018-01-17T00:07:25.626Z,11.03
2018-01-17T00:09:28.251Z,8.63
2018-01-17T00:11:30.902Z,5.07
2018-01-17T00:13:33.528Z,14.40
2018-01-17T00:15:36.200Z,10.77
2018-01-17T00:17:38.818Z,9.33
2018-01-17T00:19:41.459Z,10.20
2018-01-17T00:21:44.877Z,6.97
2018-01-17T00:23:47.498Z,10.17
2018-01-17T00:25:50.149Z,6.00
2018-01-17T00:27:52.809Z,9.90
2018-01-17T00:29:56.191Z,8.00
2018-01-17T00:31:58.818Z,11.40
2018-01-17T00:34:01.485Z,9.80
2018-01-17T00:36:04.140Z,7.17
2018-01-17T00:38:06.794Z,6.93
2018-01-17T00:40:09.418Z,4.87
2018-01-17T00:42:12.064Z,6.17
2018-01-17T00:44:14.797Z,5.93
2018-01-17T00:46:17.394Z,3.27
2018-01-17T00:48:20.044Z,6.50
2018-01-17T00:50:23.458Z,5.60
2018-01-17T00:52:26.093Z,6.77
2018-01-17T00:54:28.732Z,6.70
2018-01-17T00:56:31.393Z,11.70
2018-01-17T00:58:34.797Z,5.43
2018-01-17T01:00:37.433Z,5.87
2018-01-17T01:02:40.101Z,6.50
2018-01-17T01:04:43.491Z,5.77
2018-01-17T01:06:46.882Z,5.13
2018-01-17T01:08:50.292Z,8.70
2018-01-17T01:10:52.932Z,4.47
2018-01-17T01:12:55.546Z,4.20
2018-01-17T01:14:58.210Z,6.33
2018-01-17T01:17:00.831Z,6.70
2018-01-17T01:19:03.688Z,5.00
2018-01-17T01:21:06.347Z,4.93
2018-01-17T01:23:08.982Z,4.67
2018-01-17T01:25:11.623Z,6.10
2018-01-17T01:27:14.270Z,3.90
2018-01-17T01:29:16.909Z,2.97
2018-01-17T01:31:19.537Z,1.90
2018-01-17T01:33:22.197Z,1.83
2018-01-17T01:35:24.810Z,2.60
2018-01-17T01:37:27.448Z,6.73
2018-01-17T01:39:30.123Z,4.30
2018-01-17T01:41:32.772Z,2.53
2018-01-17T01:43:36.197Z,1.50
2018-01-17T01:45:38.856Z,6.17
2018-01-17T01:47:41.496Z,1.67
2018-01-17T01:49:44.925Z,3.53
2018-01-17T01:51:47.572Z,5.07
2018-01-17T01:53:51.000Z,7.57
2018-01-17T01:55:53.655Z,3.83
2018-01-17T01:57:56.357Z,6.00
2018-01-17T01:59:59.019Z,5.00
2018-01-17T02:02:01.669Z,6.83
2018-01-17T02:04:05.121Z,5.73
2018-01-17T02:06:07.762Z,9.10
2018-01-17T02:08:10.412Z,9.93
2018-01-17T02:10:13.870Z,8.90
2018-01-17T02:12:16.537Z,8.93
2018-01-17T02:14:19.176Z,13.40
2018-01-17T02:16:23.911Z,6.63
2018-01-17T02:18:26.544Z,5.63
2018-01-17T02:20:32.004Z,7.20
2018-01-17T02:22:34.680Z,4.83
2018-01-17T02:24:37.306Z,5.57
2018-01-17T02:26:39.958Z,9.10
2018-01-17T02:28:42.614Z,7.30
2018-01-17T02:30:45.242Z,5.13
2018-01-17T02:32:47.903Z,4.10
2018-01-17T02:34:50.552Z,5.47
2018-01-17T02:36:53.219Z,7.50
2018-01-17T02:38:55.861Z,7.83
2018-01-17T02:40:59.261Z,9.70
2018-01-17T02:43:02.059Z,5.13
2018-01-17T02:45:04.703Z,3.10
2018-01-17T02:47:08.118Z,8.13
2018-01-17T02:49:10.780Z,4.67
2018-01-17T02:51:14.192Z,4.63
2018-01-17T02:53:16.888Z,7.67
2018-01-17T02:55:19.542Z,13.70
2018-01-17T02:57:22.196Z,7.50
2018-01-17T02:59:25.606Z,4.90
2018-01-17T03:01:28.256Z,8.47
2018-01-17T03:03:31.649Z,4.87
2018-01-17T03:05:35.100Z,6.07
2018-01-17T03:07:37.742Z,11.23
2018-01-17T03:09:40.391Z,3.00
2018-01-17T03:11:43.889Z,5.00
2018-01-17T03:13:47.329Z,6.60
2018-01-17T03:15:49.957Z,8.50
2018-01-17T03:17:53.351Z,7.90
2018-01-17T03:19:56.002Z,5.83
2018-01-17T03:21:58.641Z,8.87
2018-01-17T03:24:01.258Z,7.63
2018-01-17T03:26:04.783Z,14.83
2018-01-17T03:28:07.403Z,6.40
2018-01-17T03:30:10.042Z,5.60
2018-01-17T03:32:12.691Z,5.83
2018-01-17T03:34:16.093Z,7.10
2018-01-17T03:36:18.730Z,8.57
2018-01-17T03:38:21.397Z,5.53
2018-01-17T03:40:24.026Z,7.10
2018-01-17T03:42:26.660Z,11.17
2018-01-17T03:44:29.379Z,6.60
2018-01-17T03:46:32.004Z,6.37
2018-01-17T03:48:34.642Z,8.23
2018-01-17T03:50:38.074Z,10.57
2018-01-17T03:52:40.712Z,4.77
2018-01-17T03:54:44.146Z,8.47
2018-01-17T03:56:46.782Z,9.67
2018-01-17T03:58:49.516Z,11.40
2018-01-17T04:00:52.163Z,15.27
2018-01-17T04:02:54.806Z,10.40
2018-01-17T04:04:57.418Z,6.43
2018-01-17T04:07:00.085Z,11.10
2018-01-17T04:09:02.695Z,9.63
2018-01-17T04:11:05.336Z,5.30
2018-01-17T04:13:08.009Z,3.23
2018-01-17T04:15:11.571Z,5.97
2018-01-17T04:17:14.341Z,6.67
2018-01-17T04:19:16.972Z,1.40
2018-01-17T04:21:20.375Z,5.27
2018-01-17T04:23:23.921Z,5.27
2018-01-17T04:25:26.544Z,6.50
2018-01-17T04:27:29.963Z,1.50
2018-01-17T04:29:32.638Z,2.50
2018-01-17T04:31:35.286Z,3.83
2018-01-17T04:33:38.690Z,3.33
2018-01-17T04:35:41.339Z,1.73
2018-01-17T04:37:44.794Z,5.87
2018-01-17T04:39:47.479Z,4.70
2018-01-17T04:41:50.107Z,4.77
2018-01-17T04:43:52.737Z,1.67
2018-01-17T04:45:55.417Z,5.67
2018-01-17T04:47:58.067Z,3.97
2018-01-17T04:50:00.725Z,2.07
2018-01-17T04:52:03.388Z,5.60
2018-01-17T04:54:06.026Z,3.03
2018-01-17T04:56:08.672Z,2.20
2018-01-17T04:58:11.315Z,3.13
2018-01-17T05:00:13.962Z,3.93
2018-01-17T05:02:17.384Z,3.47
2018-01-17T05:04:20.783Z,5.67
2018-01-17T05:06:23.414Z,6.87
2018-01-17T05:08:26.880Z,5.40
2018-01-17T05:10:29.565Z,7.80
2018-01-17T05:12:32.225Z,9.60
2018-01-17T05:14:34.850Z,11.00
2018-01-17T05:16:37.495Z,8.10
2018-01-17T05:18:40.144Z,8.77
2018-01-17T05:20:42.758Z,11.50
2018-01-17T05:22:46.186Z,12.97
2018-01-17T05:24:49.593Z,7.00
2018-01-17T05:26:52.218Z,10.93
2018-01-17T05:28:55.656Z,7.80
2018-01-17T05:30:58.312Z,8.37
2018-01-17T05:33:00.964Z,8.17
2018-01-17T05:35:04.382Z,7.50
2018-01-17T05:37:07.005Z,3.43
2018-01-17T05:39:09.757Z,8.70
2018-01-17T05:41:12.398Z,7.00
2018-01-17T05:43:15.062Z,3.30
2018-01-17T05:45:17.703Z,6.90
2018-01-17T05:47:20.390Z,6.20
2018-01-17T05:49:23.830Z,12.80
2018-01-17T05:51:26.471Z,6.17
2018-01-17T05:53:29.870Z,2.07
2018-01-17T05:55:32.544Z,4.70
2018-01-17T05:57:35.952Z,6.47
2018-01-17T05:59:38.591Z,7.07
2018-01-17T06:01:41.215Z,6.27
2018-01-17T06:03:43.973Z,12.17
2018-01-17T06:05:46.624Z,6.63
2018-01-17T06:07:50.042Z,8.80
2018-01-17T06:09:52.655Z,7.40
2018-01-17T06:11:55.316Z,7.13
2018-01-17T06:13:57.944Z,4.60
2018-01-17T06:16:01.356Z,8.67
2018-01-17T06:18:03.994Z,8.87
2018-01-17T06:20:06.871Z,13.70
2018-01-17T06:22:09.578Z,5.87
2018-01-17T06:24:12.195Z,10.20
2018-01-17T06:26:14.816Z,8.50
2018-01-17T06:28:18.259Z,8.70
2018-01-17T06:30:20.936Z,8.90
2018-01-17T06:32:23.633Z,14.53
2018-01-17T06:34:26.326Z,6.80
2018-01-17T06:36:29.006Z,14.83
2018-01-17T06:38:31.685Z,13.73
2018-01-17T06:40:35.084Z,10.60
2018-01-17T06:42:38.502Z,10.07
2018-01-17T06:44:41.152Z,6.93
2018-01-17T06:46:43.769Z,9.87
2018-01-17T06:48:46.419Z,8.03
2018-01-17T06:50:49.080Z,13.57
2018-01-17T06:52:51.723Z,14.13
2018-01-17T06:54:54.360Z,10.27
2018-01-17T06:56:56.984Z,10.13
2018-01-17T06:59:00.394Z,11.37
2018-01-17T07:01:03.064Z,10.77
2018-01-17T07:03:06.463Z,5.80
2018-01-17T07:05:09.089Z,16.77
2018-01-17T07:07:11.756Z,13.37
2018-01-17T07:09:14.392Z,8.77
2018-01-17T07:11:17.090Z,10.27
2018-01-17T07:13:19.798Z,10.50
2018-01-17T07:15:22.473Z,10.90
2018-01-17T07:17:25.149Z,7.70
2018-01-17T07:19:27.849Z,14.70
2018-01-17T07:21:31.265Z,10.10
2018-01-17T07:23:33.953Z,8.80
2018-01-17T07:25:36.582Z,8.33
2018-01-17T07:27:40.095Z,10.80
2018-01-17T07:29:42.757Z,13.20
2018-01-17T07:31:45.743Z,18.03
2018-01-17T07:33:48.409Z,11.23
2018-01-17T07:35:51.815Z,6.93
2018-01-17T07:37:55.210Z,12.90
2018-01-17T07:39:57.858Z,11.00
2018-01-17T07:42:00.561Z,17.37
2018-01-17T07:44:03.990Z,12.30
2018-01-17T07:46:06.662Z,10.33
2018-01-17T07:48:09.305Z,11.03
2018-01-17T07:50:11.973Z,9.03
2018-01-17T07:52:15.358Z,7.70
2018-01-17T07:54:18.770Z,20.53
2018-01-17T07:56:21.442Z,45.63
2018-01-17T07:58:24.102Z,30.50
2018-01-17T08:00:27.526Z,28.67
2018-01-17T08:02:30.173Z,53.23
2018-01-17T08:04:32.817Z,19.70
2018-01-17T08:06:35.459Z,21.23
2018-01-17T08:08:38.101Z,44.97
2018-01-17T08:10:41.499Z,17.13
2018-01-17T08:12:44.189Z,19.43
2018-01-17T08:14:46.879Z,19.50
2018-01-17T08:16:49.520Z,19.90
2018-01-17T08:18:52.188Z,12.67
2018-01-17T08:20:55.586Z,16.23
2018-01-17T08:22:58.220Z,11.50
2018-01-17T08:25:00.888Z,8.50
2018-01-17T08:27:03.536Z,9.40
2018-01-17T08:29:06.194Z,13.87
2018-01-17T08:31:08.946Z,14.60
2018-01-17T08:33:12.347Z,15.50
2018-01-17T08:35:15.772Z,16.00
2018-01-17T08:37:18.422Z,13.23
2018-01-17T08:39:21.055Z,12.63
2018-01-17T08:41:23.702Z,9.40
2018-01-17T08:43:26.379Z,17.00
2018-01-17T08:45:29.005Z,9.33
2018-01-17T08:47:32.407Z,38.90
2018-01-17T08:49:35.062Z,40.90
2018-01-17T08:51:37.701Z,14.80
2018-01-17T08:53:40.340Z,21.33
2018-01-17T08:55:43.051Z,27.67
2018-01-17T08:57:45.709Z,18.73
2018-01-17T08:59:48.345Z,10.00
2018-01-17T09:01:51.781Z,14.60
2018-01-17T09:03:54.444Z,14.00
2018-01-17T09:05:57.080Z,7.43
2018-01-17T09:07:59.737Z,9.60
2018-01-17T09:10:02.375Z,11.90
2018-01-17T09:12:05.022Z,16.57
2018-01-17T09:14:08.461Z,18.30
2018-01-17T09:16:11.106Z,18.23
2018-01-17T09:18:13.743Z,18.60
2018-01-17T09:20:16.380Z,11.70
2018-01-17T09:22:19.029Z,9.40
2018-01-17T09:24:21.696Z,10.33
2018-01-17T09:26:24.376Z,8.03
2018-01-17T09:28:27.031Z,15.27
2018-01-17T09:30:30.430Z,9.77
2018-01-17T09:32:33.834Z,6.40
2018-01-17T09:34:36.454Z,7.23
2018-01-17T09:36:39.106Z,6.70
2018-01-17T09:38:41.815Z,9.50
2018-01-17T09:40:44.465Z,9.60
2018-01-17T09:42:47.109Z,12.50
2018-01-17T09:44:49.791Z,5.87
2018-01-17T09:46:52.435Z,6.53
2018-01-17T09:48:55.067Z,8.23
2018-01-17T09:50:57.752Z,11.10
2018-01-17T09:53:00.393Z,8.43
2018-01-17T09:55:03.837Z,7.70
2018-01-17T09:57:06.474Z,8.00
2018-01-17T09:59:12.997Z,9.87
2018-01-17T10:01:16.420Z,12.77
2018-01-17T10:03:19.055Z,6.30
2018-01-17T10:05:22.496Z,7.70
2018-01-17T10:07:25.186Z,25.27
2018-01-17T10:09:27.854Z,32.13
2018-01-17T10:11:30.533Z,27.47
2018-01-17T10:13:33.167Z,17.47
2018-01-17T10:15:35.852Z,20.87
2018-01-17T10:17:38.524Z,22.87
2018-01-17T10:19:41.211Z,25.97
2018-01-17T10:21:43.851Z,11.40
2018-01-17T10:23:47.276Z,9.33
2018-01-17T10:25:49.920Z,14.80
2018-01-17T10:27:53.365Z,11.13
2018-01-17T10:29:56.102Z,13.70
2018-01-17T10:31:58.754Z,10.20
2018-01-17T10:34:01.374Z,10.13
2018-01-17T10:36:04.045Z,14.33
2018-01-17T10:38:06.709Z,8.70
2018-01-17T10:40:09.362Z,15.90
2018-01-17T10:42:12.760Z,12.80
2018-01-17T10:44:16.167Z,15.23
2018-01-17T10:46:18.816Z,11.93
2018-01-17T10:48:22.236Z,12.07
2018-01-17T10:50:24.875Z,12.40
2018-01-17T10:52:27.527Z,26.60
2018-01-17T10:54:30.179Z,18.00
2018-01-17T10:56:32.841Z,12.20
2018-01-17T10:58:35.486Z,40.37
2018-01-17T11:00:44.551Z,30.63
2018-01-17T11:02:47.231Z,19.70
2018-01-17T11:04:49.886Z,22.23
2018-01-17T11:06:52.511Z,11.77
2018-01-17T11:08:55.177Z,9.87
2018-01-17T11:10:57.814Z,13.77
2018-01-17T11:13:00.464Z,12.07
2018-01-17T11:15:03.917Z,11.73
2018-01-17T11:17:06.548Z,12.70
2018-01-17T11:19:09.170Z,17.17
2018-01-17T11:21:11.845Z,13.40
2018-01-17T11:23:14.463Z,19.07
2018-01-17T11:25:17.078Z,12.13
2018-01-17T11:27:19.749Z,17.47
2018-01-17T11:29:22.378Z,7.07
2018-01-17T11:31:25.788Z,11.50
2018-01-17T11:33:28.438Z,13.93
2018-01-17T11:35:31.966Z,14.80
2018-01-17T11:37:34.643Z,10.20
2018-01-17T11:39:37.313Z,18.73
2018-01-17T11:41:39.922Z,11.67
2018-01-17T11:43:42.558Z,17.77
2018-01-17T11:45:45.216Z,14.97
2018-01-17T11:47:47.843Z,14.20
2018-01-17T11:49:50.486Z,18.00
2018-01-17T11:51:53.266Z,17.30
2018-01-17T11:53:55.928Z,18.20
2018-01-17T11:55:58.581Z,20.67
2018-01-17T11:58:02.024Z,15.00
2018-01-17T12:00:04.705Z,21.30
2018-01-17T12:02:07.408Z,12.70
2018-01-17T12:04:10.135Z,10.87
2018-01-17T12:06:12.768Z,15.03
2018-01-17T12:08:15.728Z,14.40
2018-01-17T12:10:18.458Z,22.77
2018-01-17T12:12:21.093Z,25.23
2018-01-17T12:14:23.810Z,16.00
2018-01-17T12:16:26.558Z,14.70
2018-01-17T12:18:30.008Z,24.17
2018-01-17T12:20:32.658Z,42.07
2018-01-17T12:22:35.398Z,51.40
2018-01-17T12:24:39.948Z,15.07
2018-01-17T12:26:42.610Z,18.67
2018-01-17T12:28:46.320Z,16.10
2018-01-17T12:30:48.993Z,16.30
2018-01-17T12:32:51.679Z,22.60
2018-01-17T12:34:54.307Z,12.13
2018-01-17T12:36:56.977Z,11.80
2018-01-17T12:38:59.625Z,14.57
2018-01-17T12:41:02.272Z,16.97
2018-01-17T12:43:04.922Z,10.40
2018-01-17T12:45:08.338Z,16.80
2018-01-17T12:47:10.970Z,19.20
2018-01-17T12:49:13.635Z,17.27
2018-01-17T12:51:16.285Z,18.60
2018-01-17T12:53:19.147Z,14.60
2018-01-17T12:55:21.782Z,13.73
2018-01-17T12:57:24.407Z,16.80
2018-01-17T12:59:27.072Z,27.43
2018-01-17T13:01:29.710Z,21.37
2018-01-17T13:03:33.265Z,17.73
2018-01-17T13:05:35.904Z,17.70
2018-01-17T13:07:38.540Z,17.73
2018-01-17T13:09:41.188Z,15.10
2018-01-17T13:11:43.808Z,13.27
2018-01-17T13:13:47.193Z,17.60
2018-01-17T13:15:51.636Z,17.20
2018-01-17T13:17:54.285Z,40.93
2018-01-17T13:19:57.724Z,24.00
2018-01-17T13:22:00.377Z,44.90
2018-01-17T13:24:03.028Z,50.37
2018-01-17T13:26:06.475Z,46.57
2018-01-17T13:28:09.098Z,68.50
2018-01-17T13:30:12.493Z,68.03
2018-01-17T13:32:15.933Z,31.50
2018-01-17T13:34:18.558Z,32.43
2018-01-17T13:36:21.946Z,20.53
2018-01-17T13:38:26.074Z,13.47
2018-01-17T13:40:28.756Z,57.07
2018-01-17T13:42:31.506Z,32.73
2018-01-17T13:44:34.905Z,25.90
2018-01-17T13:46:38.313Z,37.70
2018-01-17T13:48:41.045Z,35.50
2018-01-17T13:50:43.685Z,19.40
2018-01-17T13:52:46.315Z,26.97
2018-01-17T13:54:49.129Z,29.57
2018-01-17T13:56:51.766Z,29.77
2018-01-17T13:58:54.435Z,37.67
2018-01-17T14:00:57.132Z,23.83
2018-01-17T14:03:00.543Z,24.83
2018-01-17T14:05:03.222Z,23.10
2018-01-17T14:07:05.870Z,25.23
2018-01-17T14:09:09.263Z,25.03
2018-01-17T14:11:12.659Z,19.33
2018-01-17T14:13:16.083Z,25.50
2018-01-17T14:15:18.727Z,35.13
2018-01-17T14:17:22.125Z,41.50
2018-01-17T14:19:24.793Z,24.73
2018-01-17T14:21:28.201Z,23.93
2018-01-17T14:23:30.879Z,14.07
2018-01-17T14:25:33.558Z,25.63
2018-01-17T14:27:36.188Z,33.33
2018-01-17T14:29:38.850Z,26.63
2018-01-17T14:31:41.475Z,36.43
2018-01-17T14:33:44.114Z,32.37
2018-01-17T14:35:46.785Z,17.43
2018-01-17T14:37:49.465Z,18.57
2018-01-17T14:39:52.096Z,27.10
2018-01-17T14:41:55.777Z,19.60
2018-01-17T14:43:58.394Z,18.23
2018-01-17T14:46:01.499Z,18.10
2018-01-17T14:48:04.920Z,18.13
2018-01-17T14:50:07.554Z,15.07
2018-01-17T14:52:10.270Z,26.33
2018-01-17T14:54:12.927Z,22.40
2018-01-17T14:56:16.333Z,21.10
2018-01-17T14:58:19.019Z,25.40
2018-01-17T15:00:21.708Z,26.93
2018-01-17T15:02:24.441Z,17.40
2018-01-17T15:04:27.877Z,13.67
2018-01-17T15:06:30.520Z,18.27
2018-01-17T15:08:33.909Z,15.27
2018-01-17T15:10:37.345Z,11.90
2018-01-17T15:12:40.043Z,18.87
2018-01-17T15:14:42.667Z,11.17
2018-01-17T15:16:45.343Z,14.90
2018-01-17T15:18:48.011Z,17.20
2018-01-17T15:20:50.702Z,12.77
2018-01-17T15:22:54.111Z,11.17
2018-01-17T15:24:56.781Z,20.90
2018-01-17T15:26:59.449Z,15.77
2018-01-17T15:29:02.094Z,16.40
2018-01-17T15:31:05.496Z,19.20
2018-01-17T15:33:08.142Z,12.50
2018-01-17T15:35:10.793Z,12.63
2018-01-17T15:37:13.456Z,20.07
2018-01-17T15:39:16.122Z,23.13
2018-01-17T15:41:18.790Z,18.43
2018-01-17T15:43:21.438Z,13.13
2018-01-17T15:45:24.080Z,13.83
2018-01-17T15:47:26.708Z,25.40
2018-01-17T15:49:29.473Z,16.40
2018-01-17T15:51:32.334Z,14.27
2018-01-17T15:53:35.732Z,16.83
2018-01-17T15:55:39.168Z,23.90
2018-01-17T15:57:41.802Z,15.40
2018-01-17T15:59:45.242Z,19.30
2018-01-17T16:01:47.977Z,28.07
2018-01-17T16:03:50.956Z,21.27
2018-01-17T16:05:54.448Z,18.70
2018-01-17T16:07:57.908Z,18.67
2018-01-17T16:10:00.594Z,14.87
2018-01-17T16:12:03.342Z,23.47
2018-01-17T16:14:06.026Z,23.50
2018-01-17T16:16:08.697Z,14.37
2018-01-17T16:18:11.367Z,20.60
2018-01-17T16:20:14.024Z,20.60
2018-01-17T16:22:16.729Z,16.37
2018-01-17T16:24:19.404Z,27.60
2018-01-17T16:26:22.078Z,19.67
2018-01-17T16:28:24.724Z,28.93
2018-01-17T16:30:27.423Z,23.73
2018-01-17T16:32:30.048Z,24.90
2018-01-17T16:34:32.771Z,18.40
2018-01-17T16:36:35.431Z,22.07
2018-01-17T16:38:38.067Z,16.03
2018-01-17T16:40:41.488Z,22.60
2018-01-17T16:42:44.128Z,21.43
2018-01-17T16:44:47.519Z,23.63
2018-01-17T16:46:50.368Z,18.60
2018-01-17T16:48:53.010Z,23.97
2018-01-17T16:50:55.662Z,17.70
2018-01-17T16:52:58.307Z,21.07
2018-01-17T16:55:00.947Z,19.83
2018-01-17T16:57:03.600Z,10.97
2018-01-17T16:59:06.263Z,21.27
2018-01-17T17:01:08.930Z,17.33
2018-01-17T17:03:11.562Z,14.93
2018-01-17T17:05:14.245Z,17.00
2018-01-17T17:07:16.904Z,27.27
2018-01-17T17:09:19.563Z,15.10
2018-01-17T17:11:23.287Z,21.00
2018-01-17T17:13:26.048Z,15.03
2018-01-17T17:15:28.699Z,24.37
2018-01-17T17:17:31.361Z,21.67
2018-01-17T17:19:34.012Z,23.83
2018-01-17T17:21:37.434Z,21.17
2018-01-17T17:23:40.089Z,25.23
2018-01-17T17:25:43.488Z,14.90
2018-01-17T17:27:46.158Z,23.70
2018-01-17T17:29:49.550Z,21.20
2018-01-17T17:31:52.950Z,22.80
2018-01-17T17:33:55.646Z,37.50
2018-01-17T17:35:59.069Z,28.63
2018-01-17T17:38:01.708Z,27.80
2018-01-17T17:40:04.387Z,33.53
2018-01-17T17:42:07.022Z,16.83
2018-01-17T17:44:09.654Z,26.47
2018-01-17T17:46:12.316Z,23.43
2018-01-17T17:48:14.959Z,21.37
2018-01-17T17:50:18.671Z,21.00
2018-01-17T17:52:21.340Z,18.60
2018-01-17T17:54:24.835Z,27.63
2018-01-17T17:56:27.501Z,13.47
2018-01-17T17:58:30.898Z,28.63
2018-01-17T18:00:34.320Z,26.73
2018-01-17T18:02:36.985Z,27.20
2018-01-17T18:04:39.618Z,31.57
2018-01-17T18:06:42.261Z,28.47
2018-01-17T18:08:44.929Z,22.90
2018-01-17T18:10:47.583Z,40.47
2018-01-17T18:12:50.354Z,27.20
2018-01-17T18:14:53.011Z,61.83
2018-01-17T18:16:56.422Z,35.07
2018-01-17T18:19:00.948Z,51.63
2018-01-17T18:21:03.627Z,46.40
2018-01-17T18:23:06.293Z,23.63
2018-01-17T18:25:09.723Z,35.73
2018-01-17T18:27:12.552Z,71.27
2018-01-17T18:29:15.202Z,41.00
2018-01-17T18:31:17.859Z,45.40
2018-01-17T18:33:20.563Z,27.90
2018-01-17T18:35:23.979Z,43.13
2018-01-17T18:37:26.634Z,26.10
2018-01-17T18:39:30.101Z,23.27
2018-01-17T18:41:33.519Z,31.33
2018-01-17T18:43:36.937Z,19.40
2018-01-17T18:45:39.726Z,27.63
2018-01-17T18:47:42.521Z,20.40
2018-01-17T18:49:45.263Z,12.50
2018-01-17T18:51:47.917Z,21.80
2018-01-17T18:53:51.446Z,24.77
2018-01-17T18:55:54.510Z,47.90
2018-01-17T18:57:58.074Z,20.87
2018-01-17T19:00:01.043Z,19.00
2018-01-17T19:02:03.957Z,16.30
2018-01-17T19:04:06.648Z,17.03
2018-01-17T19:06:09.346Z,25.63
2018-01-17T19:08:12.011Z,22.00
2018-01-17T19:10:14.726Z,28.37
2018-01-17T19:12:17.386Z,18.87
2018-01-17T19:14:20.396Z,30.00
2018-01-17T19:16:23.070Z,26.20
2018-01-17T19:18:25.736Z,25.60
2018-01-17T19:20:28.367Z,28.73
2018-01-17T19:22:31.007Z,31.80
2018-01-17T19:24:33.718Z,26.90
2018-01-17T19:26:36.367Z,27.17
2018-01-17T19:28:39.781Z,18.37
2018-01-17T19:30:42.465Z,26.60
2018-01-17T19:32:45.126Z,25.97
2018-01-17T19:34:47.792Z,19.17
2018-01-17T19:36:51.235Z,21.43
2018-01-17T19:38:53.965Z,26.23
2018-01-17T19:40:56.640Z,16.50
2018-01-17T19:42:59.347Z,28.40
2018-01-17T19:45:01.986Z,21.67
2018-01-17T19:47:05.432Z,16.57
2018-01-17T19:49:08.118Z,21.03
2018-01-17T19:51:10.757Z,26.67
2018-01-17T19:53:13.494Z,21.63
2018-01-17T19:55:17.036Z,16.00
2018-01-17T19:57:19.694Z,29.83
2018-01-17T19:59:22.355Z,24.47
2018-01-17T20:01:25.860Z,18.80
2018-01-17T20:03:28.500Z,18.97
2018-01-17T20:05:31.135Z,25.27
2018-01-17T20:07:33.859Z,19.87
2018-01-17T20:09:37.239Z,19.53
2018-01-17T20:11:40.220Z,23.97
2018-01-17T20:13:52.216Z,38.00
2018-01-17T20:15:56.024Z,17.33
2018-01-17T20:17:59.786Z,20.37
2018-01-17T20:20:02.469Z,23.73
2018-01-17T20:22:05.197Z,21.07
2018-01-17T20:24:08.051Z,20.87
2018-01-17T20:26:11.416Z,27.13
2018-01-17T20:28:14.866Z,24.60
2018-01-17T20:30:17.599Z,29.93
2018-01-17T20:32:20.263Z,20.73
2018-01-17T20:34:22.901Z,25.70
2018-01-17T20:36:25.550Z,27.47
2018-01-17T20:38:28.192Z,24.33
2018-01-17T20:40:30.916Z,27.27
2018-01-17T20:42:33.619Z,19.53
2018-01-17T20:44:36.299Z,27.40
2018-01-17T20:46:39.171Z,24.60
2018-01-17T20:48:41.935Z,27.70
2018-01-17T20:50:44.726Z,25.30
2018-01-17T20:52:47.488Z,29.07
2018-01-17T20:54:51.164Z,13.37
2018-01-17T20:56:54.755Z,27.97
2018-01-17T20:58:57.468Z,26.33
2018-01-17T21:01:00.110Z,26.87
2018-01-17T21:03:03.528Z,24.87
2018-01-17T21:05:07.949Z,19.90
2018-01-17T21:07:10.716Z,17.60
2018-01-17T21:09:13.380Z,23.90
2018-01-17T21:11:16.784Z,22.33
2018-01-17T21:13:19.476Z,24.50
2018-01-17T21:15:22.107Z,32.37
2018-01-17T21:17:25.512Z,23.07
2018-01-17T21:19:28.927Z,18.47
2018-01-17T21:21:31.597Z,16.70
2018-01-17T21:23:34.234Z,17.83
2018-01-17T21:25:36.874Z,23.97
2018-01-17T21:27:39.494Z,17.90
2018-01-17T21:29:42.900Z,20.40
2018-01-17T21:31:45.565Z,23.80
2018-01-17T21:33:49.043Z,24.83
2018-01-17T21:35:51.791Z,21.03
2018-01-17T21:37:54.456Z,27.33
2018-01-17T21:39:57.087Z,31.60
2018-01-17T21:41:59.741Z,26.40
2018-01-17T21:44:08.033Z,21.13
2018-01-17T21:46:10.667Z,28.60
2018-01-17T21:48:13.334Z,27.03
2018-01-17T21:50:16.013Z,24.80
2018-01-17T21:52:18.717Z,30.83
2018-01-17T21:54:21.349Z,28.70
2018-01-17T21:56:23.977Z,39.10
2018-01-17T21:58:26.646Z,34.33
2018-01-17T22:00:29.296Z,23.90
2018-01-17T22:02:32.103Z,32.17
2018-01-17T22:04:34.731Z,17.90
2018-01-17T22:06:37.930Z,28.63
2018-01-17T22:08:40.702Z,29.83
2018-01-17T22:10:43.340Z,24.67
2018-01-17T22:12:45.997Z,24.57
2018-01-17T22:14:48.644Z,34.53
2018-01-17T22:16:51.305Z,32.03
2018-01-17T22:18:53.960Z,22.67
2018-01-17T22:20:57.347Z,21.43
2018-01-17T22:23:00.738Z,19.87
2018-01-17T22:25:04.170Z,21.57
2018-01-17T22:27:06.791Z,25.27
2018-01-17T22:29:09.571Z,27.67
2018-01-17T22:31:13.000Z,20.67
2018-01-17T22:33:15.624Z,22.83
2018-01-17T22:35:18.243Z,35.37
2018-01-17T22:37:21.032Z,25.10
2018-01-17T22:39:23.678Z,30.27
2018-01-17T22:41:27.110Z,19.90
2018-01-17T22:43:29.749Z,23.23
2018-01-17T22:45:32.381Z,20.27
2018-01-17T22:47:35.051Z,24.97
2018-01-17T22:49:37.693Z,22.50
2018-01-17T22:51:40.362Z,24.20
2018-01-17T22:53:43.035Z,26.40
2018-01-17T22:55:45.679Z,32.27
2018-01-17T22:57:49.091Z,16.20
2018-01-17T22:59:51.715Z,26.87
2018-01-17T23:01:54.349Z,22.80
2018-01-17T23:03:56.990Z,17.37
2018-01-17T23:05:59.629Z,29.33
2018-01-17T23:08:02.299Z,23.77
2018-01-17T23:10:04.927Z,19.23
2018-01-17T23:12:08.322Z,13.50
2018-01-17T23:14:12.609Z,16.83
2018-01-17T23:16:15.228Z,21.30
2018-01-17T23:18:17.902Z,14.23
2018-01-17T23:20:20.538Z,23.07
2018-01-17T23:22:23.173Z,16.47
2018-01-17T23:24:25.847Z,13.77
2018-01-17T23:26:28.502Z,28.73
2018-01-17T23:28:31.142Z,17.93
2018-01-17T23:30:34.563Z,26.33
2018-01-17T23:32:37.190Z,25.30
2018-01-17T23:34:39.852Z,23.50
2018-01-17T23:36:42.505Z,25.97
2018-01-17T23:38:45.184Z,22.20
2018-01-17T23:40:47.829Z,14.63
2018-01-17T23:42:50.465Z,21.10
2018-01-17T23:44:53.125Z,21.47
2018-01-17T23:46:55.757Z,23.40
2018-01-17T23:48:58.410Z,20.60
2018-01-17T23:51:01.833Z,16.50
2018-01-17T23:53:04.451Z,26.57
2018-01-17T23:55:07.101Z,24.23
2018-01-17T23:57:09.741Z,22.57
2018-01-17T23:59:12.380Z,23.13
